Time;durP1;ratioP1;P1;durP2;ratioP2;P2;SDS_P1;SDS_P2;PMS_P1;PMS_P2;Temp;Humidity;BMP_temperature;BMP_pressure;BME280_temperature;BME280_humidity;BME280_pressure;Samples;Min_cycle;Max_cycle;Signal;HPM_P1;HPM_P2
2023/09/19 00:02:19;;;;;;;1.83;1.13;;;17.80;99.90;;;;;;4991997;28;20424;-89
2023/09/19 00:05:05;;;;;;;3.87;1.27;;;17.90;99.90;;;;;;4987730;28;20480;-88
2023/09/19 00:07:54;;;;;;;2.97;1.20;;;17.90;99.90;;;;;;4990608;28;21269;-88
2023/09/19 00:10:41;;;;;;;4.30;1.90;;;17.90;99.90;;;;;;4990270;28;20479;-88
2023/09/19 00:13:28;;;;;;;1.70;0.93;;;18.00;99.90;;;;;;4986847;28;20456;-89
2023/09/19 00:16:14;;;;;;;3.27;1.50;;;18.00;99.90;;;;;;4991292;28;20471;-88
2023/09/19 00:19:08;;;;;;;3.03;1.47;;;18.00;99.90;;;;;;4987882;28;20448;-88
2023/09/19 00:21:54;;;;;;;4.70;1.47;;;18.10;99.90;;;;;;4986344;28;20434;-90
2023/09/19 00:24:40;;;;;;;4.83;1.90;;;18.10;99.90;;;;;;4989424;28;20881;-88
2023/09/19 00:27:26;;;;;;;3.73;1.50;;;18.00;99.90;;;;;;4987243;28;20525;-88
2023/09/19 00:30:15;;;;;;;6.07;1.33;;;18.00;99.90;;;;;;4990230;28;20591;-89
2023/09/19 00:33:05;;;;;;;2.90;1.13;;;17.90;99.90;;;;;;4990186;28;20502;-88
2023/09/19 00:35:54;;;;;;;2.27;1.20;;;18.00;99.90;;;;;;4985261;28;20566;-88
2023/09/19 00:38:40;;;;;;;4.03;1.40;;;18.10;99.90;;;;;;4982904;28;20827;-89
2023/09/19 00:41:26;;;;;;;3.23;1.40;;;18.10;99.90;;;;;;4988317;28;20529;-90
2023/09/19 00:44:11;;;;;;;3.53;1.60;;;18.00;99.90;;;;;;4990077;28;20459;-89
2023/09/19 00:46:58;;;;;;;4.40;2.00;;;18.10;99.90;;;;;;4985494;28;20490;-89
2023/09/19 00:49:49;;;;;;;2.90;1.20;;;18.10;99.90;;;;;;4988342;28;20559;-88
2023/09/19 00:52:38;;;;;;;2.30;1.40;;;18.10;99.90;;;;;;4986640;28;20472;-89
2023/09/19 00:55:25;;;;;;;2.87;1.40;;;18.20;99.90;;;;;;4983613;28;20472;-90
2023/09/19 00:58:11;;;;;;;2.80;1.40;;;18.20;99.90;;;;;;4986193;28;20415;-90
2023/09/19 01:00:57;;;;;;;4.07;1.53;;;18.20;99.90;;;;;;4985423;28;20551;-88
2023/09/19 01:03:43;;;;;;;3.83;1.33;;;18.20;99.90;;;;;;4989263;28;20622;-89
2023/09/19 01:06:29;;;;;;;4.90;1.80;;;18.20;99.90;;;;;;4987128;28;20472;-88
2023/09/19 01:09:16;;;;;;;2.70;1.57;;;18.20;99.90;;;;;;4988486;28;20445;-88
2023/09/19 01:12:05;;;;;;;3.30;1.50;;;18.10;99.90;;;;;;4984350;28;20452;-88
2023/09/19 01:14:58;;;;;;;3.60;1.57;;;18.00;99.90;;;;;;4987499;28;20446;-88
2023/09/19 01:17:50;;;;;;;5.67;1.73;;;18.00;99.90;;;;;;4987778;28;20418;-89
2023/09/19 01:20:45;;;;;;;3.70;1.93;;;18.10;99.90;;;;;;4989001;28;20460;-88
2023/09/19 01:23:53;;;;;;;5.23;1.60;;;18.10;99.90;;;;;;4989506;28;20535;-88
2023/09/19 01:27:08;;;;;;;4.20;1.43;;;18.10;99.90;;;;;;4986719;28;20464;-88
2023/09/19 01:29:54;;;;;;;3.20;1.73;;;18.20;99.90;;;;;;4985455;28;20463;-89
2023/09/19 01:32:46;;;;;;;3.80;1.70;;;18.20;99.90;;;;;;4980201;28;20431;-89
2023/09/19 01:35:32;;;;;;;3.77;1.53;;;18.10;99.90;;;;;;4984823;28;21021;-89
2023/09/19 01:38:19;;;;;;;4.27;1.40;;;18.00;99.90;;;;;;4987090;28;21380;-88
2023/09/19 01:41:12;;;;;;;4.77;1.60;;;17.90;99.90;;;;;;4987365;28;20439;-88
2023/09/19 01:44:00;;;;;;;2.50;1.50;;;17.90;99.90;;;;;;4981594;28;20426;-88
2023/09/19 01:46:47;;;;;;;3.90;1.30;;;17.90;99.90;;;;;;4982941;28;20467;-88
2023/09/19 01:49:46;;;;;;;5.00;1.77;;;18.00;99.90;;;;;;4984321;28;20874;-88
2023/09/19 01:52:37;;;;;;;2.97;1.70;;;18.00;99.90;;;;;;4985657;28;20449;-88
2023/09/19 01:55:25;;;;;;;5.20;2.10;;;18.00;99.90;;;;;;4981986;28;20547;-88
2023/09/19 01:58:19;;;;;;;5.40;2.03;;;17.90;99.90;;;;;;4985793;28;20416;-89
2023/09/19 02:01:06;;;;;;;3.30;1.90;;;17.70;99.90;;;;;;4982554;28;20530;-89
2023/09/19 02:03:54;;;;;;;4.93;1.93;;;17.70;99.90;;;;;;4984200;28;20503;-88
2023/09/19 02:06:42;;;;;;;4.30;2.10;;;17.70;99.90;;;;;;4979922;28;20552;-88
2023/09/19 02:09:28;;;;;;;3.87;1.80;;;17.70;99.90;;;;;;4983238;28;20848;-88
2023/09/19 02:12:15;;;;;;;4.60;1.70;;;17.70;99.90;;;;;;4983098;28;20619;-88
2023/09/19 02:15:01;;;;;;;4.80;1.70;;;17.60;99.90;;;;;;4983851;28;20446;-89
2023/09/19 02:17:47;;;;;;;3.67;1.90;;;17.70;99.90;;;;;;4982442;28;20431;-89
2023/09/19 02:20:33;;;;;;;4.07;2.00;;;17.70;99.90;;;;;;4985287;28;20446;-89
2023/09/19 02:23:20;;;;;;;3.00;1.87;;;17.70;99.90;;;;;;4985110;28;20565;-89
2023/09/19 02:26:05;;;;;;;4.23;1.80;;;17.80;99.90;;;;;;4991728;28;20478;-88
2023/09/19 02:28:52;;;;;;;9.73;2.03;;;17.70;99.90;;;;;;4992005;28;20468;-89
2023/09/19 02:31:38;;;;;;;5.23;1.83;;;17.70;99.90;;;;;;4987400;28;21094;-89
2023/09/19 02:34:25;;;;;;;2.93;2.00;;;17.80;99.90;;;;;;4989186;28;20517;-89
2023/09/19 02:37:13;;;;;;;4.10;1.80;;;17.80;99.90;;;;;;4989466;28;20952;-88
2023/09/19 02:40:00;;;;;;;3.53;2.33;;;17.60;99.90;;;;;;4989355;28;20798;-89
2023/09/19 02:42:48;;;;;;;11.50;3.00;;;17.60;99.90;;;;;;4991072;28;20425;-89
2023/09/19 02:45:34;;;;;;;6.63;3.20;;;17.70;99.90;;;;;;4988018;28;20445;-87
2023/09/19 02:48:21;;;;;;;2.63;1.77;;;17.70;99.90;;;;;;4987700;28;20437;-89
2023/09/19 02:51:07;;;;;;;3.97;2.03;;;17.70;99.90;;;;;;4991010;28;20531;-89
2023/09/19 02:53:54;;;;;;;3.57;1.90;;;17.70;99.90;;;;;;4987736;28;20455;-90
2023/09/19 02:56:41;;;;;;;4.20;2.13;;;17.80;99.90;;;;;;4985798;28;21008;-89
2023/09/19 02:59:28;;;;;;;4.20;2.63;;;17.60;99.90;;;;;;4989067;28;21045;-88
2023/09/19 03:02:14;;;;;;;2.37;1.57;;;17.70;99.90;;;;;;4984971;28;21086;-90
2023/09/19 03:05:00;;;;;;;5.20;1.63;;;17.70;99.90;;;;;;4991671;28;20456;-88
2023/09/19 03:07:46;;;;;;;6.43;2.00;;;17.80;99.90;;;;;;4985720;28;20987;-89
2023/09/19 03:10:32;;;;;;;10.80;2.27;;;17.90;99.90;;;;;;4987338;28;20524;-89
2023/09/19 03:13:20;;;;;;;4.33;1.97;;;17.80;99.90;;;;;;4981375;28;20452;-89
2023/09/19 03:16:06;;;;;;;5.73;2.20;;;17.70;99.90;;;;;;4989647;28;20472;-89
2023/09/19 03:18:52;;;;;;;6.20;2.10;;;17.70;99.90;;;;;;4988594;28;20457;-89
2023/09/19 03:21:38;;;;;;;6.10;2.60;;;17.70;99.90;;;;;;4987967;28;20645;-89
2023/09/19 03:24:24;;;;;;;9.23;2.27;;;17.50;99.90;;;;;;4988606;28;20454;-89
2023/09/19 03:27:10;;;;;;;3.60;2.13;;;17.40;99.90;;;;;;4987734;28;20427;-89
2023/09/19 03:29:57;;;;;;;2.97;1.90;;;17.40;99.90;;;;;;4984605;28;21104;-88
2023/09/19 03:32:49;;;;;;;5.30;2.63;;;17.50;99.90;;;;;;4988653;28;20542;-89
2023/09/19 03:35:36;;;;;;;5.80;2.33;;;17.50;99.90;;;;;;4988661;28;20544;-89
2023/09/19 03:38:22;;;;;;;6.37;2.43;;;17.40;99.90;;;;;;4991853;28;20420;-89
2023/09/19 03:41:09;;;;;;;3.50;2.30;;;17.40;99.90;;;;;;4988675;28;20551;-88
2023/09/19 03:43:54;;;;;;;4.03;2.37;;;17.50;99.90;;;;;;4987448;28;20618;-89
2023/09/19 03:46:41;;;;;;;4.30;2.43;;;17.50;99.90;;;;;;4982636;28;20457;-90
2023/09/19 03:49:27;;;;;;;6.43;2.03;;;17.50;99.90;;;;;;4986505;28;21174;-88
2023/09/19 03:52:14;;;;;;;6.83;2.10;;;17.50;99.90;;;;;;4984641;28;20474;-90
2023/09/19 03:55:00;;;;;;;4.67;2.30;;;17.50;99.90;;;;;;4989099;28;20459;-90
2023/09/19 03:57:50;;;;;;;10.80;2.10;;;17.50;99.90;;;;;;4990784;28;20498;-89
2023/09/19 04:00:35;;;;;;;5.40;2.40;;;17.40;99.90;;;;;;4987464;28;20587;-89
2023/09/19 04:03:22;;;;;;;3.53;2.43;;;17.30;99.90;;;;;;4986259;28;20423;-88
2023/09/19 04:06:08;;;;;;;5.40;2.63;;;17.40;99.90;;;;;;4983410;28;20453;-89
2023/09/19 04:08:54;;;;;;;9.30;2.63;;;17.20;99.90;;;;;;4988274;28;20534;-91
2023/09/19 04:11:40;;;;;;;5.13;2.60;;;17.10;99.90;;;;;;4990083;28;20961;-89
2023/09/19 04:14:26;;;;;;;3.63;2.87;;;17.20;99.90;;;;;;4990199;28;21039;-89
2023/09/19 04:17:11;;;;;;;3.87;2.90;;;17.20;99.90;;;;;;4985488;28;20513;-88
2023/09/19 04:19:58;;;;;;;3.83;2.80;;;17.10;99.90;;;;;;4985245;28;20417;-88
2023/09/19 04:22:44;;;;;;;5.40;3.57;;;17.10;99.90;;;;;;4990825;28;20530;-89
2023/09/19 04:25:31;;;;;;;6.53;3.30;;;17.10;99.90;;;;;;4984754;28;20494;-89
2023/09/19 04:28:17;;;;;;;4.50;3.17;;;17.10;99.90;;;;;;4985222;28;20460;-89
2023/09/19 04:31:03;;;;;;;5.10;3.63;;;17.00;99.90;;;;;;4989000;28;20524;-89
2023/09/19 04:33:49;;;;;;;7.50;4.00;;;17.00;99.90;;;;;;4990296;28;20458;-90
2023/09/19 04:36:36;;;;;;;6.93;3.20;;;16.90;99.90;;;;;;4986218;28;20515;-89
2023/09/19 04:39:25;;;;;;;5.10;3.63;;;16.80;99.90;;;;;;4986149;28;20456;-88
2023/09/19 04:42:14;;;;;;;5.53;3.23;;;16.80;99.90;;;;;;4984237;28;20465;-89
2023/09/19 04:45:00;;;;;;;11.30;3.80;;;16.70;99.90;;;;;;4987003;28;20440;-89
2023/09/19 04:47:46;;;;;;;7.13;4.03;;;16.70;99.90;;;;;;4987995;28;20467;-89
2023/09/19 04:50:32;;;;;;;7.80;4.10;;;16.70;99.90;;;;;;4985367;28;20600;-90
2023/09/19 04:53:20;;;;;;;3.97;3.47;;;16.70;99.90;;;;;;4986342;28;20468;-88
2023/09/19 04:56:07;;;;;;;5.20;3.03;;;16.60;99.90;;;;;;4989083;28;20484;-88
2023/09/19 04:58:53;;;;;;;5.47;4.17;;;16.50;99.90;;;;;;4988853;28;20452;-89
2023/09/19 05:01:39;;;;;;;8.17;3.83;;;16.40;99.90;;;;;;4986217;28;20542;-89
2023/09/19 05:04:25;;;;;;;7.20;4.37;;;16.30;99.90;;;;;;4980855;28;20519;-88
2023/09/19 05:07:11;;;;;;;5.47;3.77;;;16.20;99.90;;;;;;4984668;28;20406;-88
2023/09/19 05:09:58;;;;;;;3.60;2.97;;;16.30;99.90;;;;;;4990374;28;20598;-89
2023/09/19 05:12:47;;;;;;;7.07;3.30;;;16.10;99.90;;;;;;4986621;28;20414;-89
2023/09/19 05:15:33;;;;;;;6.73;4.37;;;16.00;99.90;;;;;;4984368;28;20469;-88
2023/09/19 05:18:18;;;;;;;7.50;4.10;;;16.00;99.90;;;;;;4989390;28;20425;-88
2023/09/19 05:21:04;;;;;;;6.90;3.43;;;16.00;99.90;;;;;;4990219;28;20994;-88
2023/09/19 05:23:52;;;;;;;6.63;3.60;;;16.10;99.90;;;;;;4984709;28;20424;-89
2023/09/19 05:26:39;;;;;;;7.27;3.40;;;16.10;99.90;;;;;;4986411;28;20486;-89
2023/09/19 05:29:25;;;;;;;8.37;3.23;;;16.10;99.90;;;;;;4987563;28;20991;-88
2023/09/19 05:32:11;;;;;;;5.33;3.80;;;16.00;99.90;;;;;;4985358;28;20459;-88
2023/09/19 05:34:57;;;;;;;5.33;3.23;;;16.10;99.90;;;;;;4988817;28;20447;-89
2023/09/19 05:37:42;;;;;;;10.93;3.60;;;16.20;99.90;;;;;;4986947;28;20985;-89
2023/09/19 05:40:32;;;;;;;6.90;4.00;;;16.20;99.90;;;;;;4982454;28;20420;-90
2023/09/19 05:43:18;;;;;;;6.27;3.90;;;16.10;99.90;;;;;;4990097;28;20496;-88
2023/09/19 05:46:04;;;;;;;8.63;3.70;;;16.20;99.90;;;;;;4987018;28;20478;-89
2023/09/19 05:48:50;;;;;;;5.60;3.40;;;16.30;99.90;;;;;;4986922;28;20815;-89
2023/09/19 05:51:36;;;;;;;5.27;3.57;;;16.40;99.90;;;;;;4986642;28;20442;-88
2023/09/19 05:54:22;;;;;;;8.23;4.17;;;16.20;99.90;;;;;;4986625;28;20442;-88
2023/09/19 05:57:07;;;;;;;7.63;3.30;;;16.20;99.90;;;;;;4986751;28;20542;-87
2023/09/19 05:59:55;;;;;;;5.70;3.37;;;16.30;99.90;;;;;;4987263;28;20494;-88
2023/09/19 06:02:41;;;;;;;8.23;3.67;;;16.50;99.90;;;;;;4986441;28;20425;-89
2023/09/19 06:05:30;;;;;;;4.67;2.90;;;16.50;99.90;;;;;;4985672;28;20856;-89
2023/09/19 06:08:15;;;;;;;8.07;3.60;;;16.50;99.90;;;;;;4987297;28;20981;-89
2023/09/19 06:11:02;;;;;;;7.73;3.03;;;16.60;99.90;;;;;;4988208;28;20535;-89
2023/09/19 06:13:48;;;;;;;5.90;3.50;;;16.60;99.90;;;;;;4986738;28;20977;-90
2023/09/19 06:16:35;;;;;;;10.63;3.63;;;16.60;99.90;;;;;;4980531;28;20442;-88
2023/09/19 06:19:22;;;;;;;5.27;3.03;;;16.50;99.90;;;;;;4986158;28;20582;-89
2023/09/19 06:22:08;;;;;;;11.37;3.77;;;16.50;99.90;;;;;;4985627;28;20427;-88
2023/09/19 06:24:54;;;;;;;7.97;3.43;;;16.60;99.90;;;;;;4987750;28;20449;-89
2023/09/19 06:27:42;;;;;;;6.50;3.17;;;16.60;99.90;;;;;;4984478;28;20433;-88
2023/09/19 06:30:29;;;;;;;7.57;3.03;;;16.60;99.90;;;;;;4982238;28;21523;-89
2023/09/19 06:33:17;;;;;;;5.50;3.23;;;16.60;99.90;;;;;;4978727;28;20437;-90
2023/09/19 06:36:04;;;;;;;11.80;3.67;;;16.80;99.90;;;;;;4981541;28;20445;-88
2023/09/19 06:38:51;;;;;;;4.30;3.07;;;16.90;99.90;;;;;;4985237;28;20453;-89
2023/09/19 06:41:38;;;;;;;11.83;3.43;;;16.90;99.90;;;;;;4985587;28;20939;-88
2023/09/19 06:44:24;;;;;;;12.23;3.20;;;17.00;99.90;;;;;;4986748;28;20515;-89
2023/09/19 06:47:11;;;;;;;9.37;3.03;;;17.00;99.90;;;;;;4987352;28;20461;-88
2023/09/19 06:49:58;;;;;;;5.90;3.00;;;17.10;99.90;;;;;;4985647;28;20429;-88
2023/09/19 06:52:44;;;;;;;6.00;3.30;;;17.10;99.90;;;;;;4986059;28;20448;-88
2023/09/19 06:55:31;;;;;;;7.67;2.70;;;17.20;99.90;;;;;;4981658;28;20534;-89
2023/09/19 06:58:17;;;;;;;4.77;2.60;;;17.20;99.90;;;;;;4983398;28;20952;-89
2023/09/19 07:01:03;;;;;;;7.10;2.20;;;17.30;99.90;;;;;;4986232;28;20454;-88
2023/09/19 07:03:48;;;;;;;6.40;2.60;;;17.50;99.90;;;;;;4985063;28;20454;-88
2023/09/19 07:06:36;;;;;;;6.80;2.07;;;17.40;99.90;;;;;;4985484;28;20824;-89
2023/09/19 07:09:22;;;;;;;6.47;2.13;;;17.40;99.90;;;;;;4987190;28;20415;-89
2023/09/19 07:12:08;;;;;;;18.37;2.50;;;17.30;99.90;;;;;;4987606;28;20553;-89
2023/09/19 07:14:54;;;;;;;6.57;2.43;;;17.30;99.90;;;;;;4989640;28;20500;-89
2023/09/19 07:17:40;;;;;;;4.87;2.63;;;17.30;99.90;;;;;;4988466;28;20443;-88
2023/09/19 07:20:27;;;;;;;5.47;2.70;;;17.20;99.90;;;;;;4987607;28;20483;-88
2023/09/19 07:23:14;;;;;;;5.03;2.40;;;17.10;99.90;;;;;;4987362;28;21020;-89
2023/09/19 07:26:00;;;;;;;6.63;2.13;;;17.20;99.90;;;;;;4987598;28;20484;-88
2023/09/19 07:28:46;;;;;;;7.20;2.10;;;17.20;99.90;;;;;;4990037;28;20437;-89
2023/09/19 07:31:33;;;;;;;4.57;2.00;;;17.40;99.90;;;;;;4988876;28;20569;-88
2023/09/19 07:34:20;;;;;;;5.83;2.20;;;17.50;99.90;;;;;;4986101;28;20587;-88
2023/09/19 07:37:06;;;;;;;10.30;2.53;;;17.50;99.90;;;;;;4991309;28;20502;-88
2023/09/19 07:39:54;;;;;;;4.13;2.30;;;17.50;99.90;;;;;;4987605;28;20629;-89
2023/09/19 07:42:40;;;;;;;3.43;1.73;;;17.60;99.90;;;;;;4986932;28;20413;-88
2023/09/19 07:45:26;;;;;;;7.83;2.60;;;17.60;99.90;;;;;;4991263;28;20527;-89
2023/09/19 07:48:14;;;;;;;5.10;2.10;;;17.60;99.90;;;;;;4987858;28;20447;-89
2023/09/19 07:51:04;;;;;;;3.40;1.90;;;17.70;99.90;;;;;;4988496;28;20454;-89
2023/09/19 07:53:50;;;;;;;4.60;1.77;;;17.80;99.90;;;;;;4990297;28;20421;-89
2023/09/19 07:56:37;;;;;;;4.90;2.27;;;17.90;99.90;;;;;;4990885;28;20847;-89
2023/09/19 07:59:23;;;;;;;9.63;2.30;;;18.00;99.90;;;;;;4986282;28;20573;-88
2023/09/19 08:02:15;;;;;;;5.30;2.10;;;18.20;99.90;;;;;;4988468;28;20448;-89
2023/09/19 08:05:06;;;;;;;7.77;2.30;;;18.20;99.90;;;;;;4986916;28;20446;-88
2023/09/19 08:07:52;;;;;;;6.40;2.70;;;18.20;99.90;;;;;;4989719;28;20451;-88
2023/09/19 08:10:39;;;;;;;7.63;2.40;;;18.30;99.90;;;;;;4988788;28;20434;-89
2023/09/19 08:13:27;;;;;;;5.07;2.33;;;18.30;99.90;;;;;;4989760;28;20458;-89
2023/09/19 08:16:14;;;;;;;4.90;2.70;;;18.50;99.90;;;;;;4983771;28;20524;-89
2023/09/19 08:19:00;;;;;;;6.97;3.37;;;18.40;99.90;;;;;;4985851;28;20893;-89
2023/09/19 08:22:06;;;;;;;3.10;2.30;;;18.10;99.90;;;;;;4987974;28;20566;-88
2023/09/19 08:24:51;;;;;;;7.67;2.87;;;18.00;99.90;;;;;;4989498;28;20550;-88
2023/09/19 08:27:37;;;;;;;4.20;3.00;;;18.10;99.90;;;;;;4984784;28;20439;-88
2023/09/19 08:30:27;;;;;;;4.73;2.43;;;18.10;99.90;;;;;;4988703;28;20461;-88
2023/09/19 08:33:15;;;;;;;5.90;2.53;;;18.10;99.90;;;;;;4986101;28;20626;-87
2023/09/19 08:36:01;;;;;;;6.07;2.83;;;18.20;99.90;;;;;;4984853;28;20470;-89
2023/09/19 08:38:46;;;;;;;7.63;3.43;;;18.00;99.90;;;;;;4986762;28;20812;-88
2023/09/19 08:41:32;;;;;;;6.10;2.80;;;18.00;99.90;;;;;;4985965;28;20435;-88
2023/09/19 08:44:19;;;;;;;5.77;3.00;;;18.00;99.90;;;;;;4988391;28;20595;-88
2023/09/19 08:47:11;;;;;;;5.90;2.60;;;18.00;99.90;;;;;;4986394;28;20838;-88
2023/09/19 08:50:05;;;;;;;6.20;3.17;;;18.20;99.90;;;;;;4986944;28;21073;-89
2023/09/19 08:52:54;;;;;;;4.63;2.93;;;18.30;99.90;;;;;;4987955;28;20457;-88
2023/09/19 08:55:42;;;;;;;6.60;3.40;;;18.30;99.90;;;;;;4989708;28;21013;-89
2023/09/19 08:58:33;;;;;;;3.80;2.90;;;18.20;99.90;;;;;;4986419;28;20432;-89
2023/09/19 09:01:24;;;;;;;7.00;3.17;;;18.20;99.90;;;;;;4985344;28;20916;-88
2023/09/19 09:04:13;;;;;;;5.63;2.90;;;18.10;99.90;;;;;;4987877;28;20414;-89
2023/09/19 09:06:58;;;;;;;5.27;2.90;;;18.10;99.90;;;;;;4986900;28;20578;-88
2023/09/19 09:09:44;;;;;;;6.13;3.00;;;18.20;99.90;;;;;;4985647;28;20452;-88
2023/09/19 09:12:31;;;;;;;6.67;3.40;;;18.40;99.90;;;;;;4989411;28;20474;-89
2023/09/19 09:15:21;;;;;;;5.40;2.80;;;18.40;99.90;;;;;;4988052;28;20502;-89
2023/09/19 09:18:07;;;;;;;5.70;2.50;;;18.40;99.90;;;;;;4985344;28;20471;-88
2023/09/19 09:20:55;;;;;;;5.50;2.37;;;18.50;99.90;;;;;;4988612;28;20452;-88
2023/09/19 09:23:41;;;;;;;9.63;3.30;;;18.50;99.90;;;;;;4986017;28;20794;-88
2023/09/19 09:26:43;;;;;;;4.47;2.63;;;18.40;99.90;;;;;;4983668;28;20451;-89
2023/09/19 09:29:47;;;;;;;7.70;2.93;;;18.50;99.90;;;;;;4987285;28;20549;-88
2023/09/19 09:32:35;;;;;;;4.57;2.60;;;18.60;99.90;;;;;;4982886;28;21087;-89
2023/09/19 09:35:21;;;;;;;5.23;2.43;;;18.60;99.90;;;;;;4986071;28;20628;-88
2023/09/19 09:38:09;;;;;;;9.83;2.77;;;18.70;99.90;;;;;;4986138;28;20584;-87
2023/09/19 09:41:01;;;;;;;6.50;3.20;;;18.80;99.90;;;;;;4985049;28;20460;-88
2023/09/19 09:43:48;;;;;;;6.90;3.00;;;18.90;99.90;;;;;;4986837;28;21161;-89
2023/09/19 09:49:39;;;;;;;7.10;2.63;;;18.90;95.60;;;;;;4985490;28;20454;-89
2023/09/19 09:52:25;;;;;;;3.97;2.90;;;18.80;94.70;;;;;;4984437;28;20449;-88
2023/09/19 09:55:12;;;;;;;8.80;2.73;;;18.80;94.00;;;;;;4986614;28;20471;-88
2023/09/19 09:58:23;;;;;;;6.20;3.13;;;18.60;95.40;;;;;;4984582;28;20427;-88
2023/09/19 10:01:10;;;;;;;4.50;2.70;;;18.70;95.20;;;;;;5032774;22;20508;-69
2023/09/19 10:04:00;;;;;;;9.63;2.60;;;18.70;92.40;;;;;;5024550;28;20478;-69
2023/09/19 10:06:49;;;;;;;8.03;2.33;;;18.70;91.60;;;;;;5020426;28;20540;-70
2023/09/19 10:09:47;;;;;;;5.27;2.50;;;18.70;91.50;;;;;;5013947;28;20473;-69
2023/09/19 10:12:35;;;;;;;6.07;2.40;;;18.60;84.20;;;;;;5003839;28;20517;-69
2023/09/19 10:15:21;;;;;;;8.20;2.10;;;18.70;82.50;;;;;;5002591;28;20545;-69
2023/09/19 10:18:08;;;;;;;10.60;2.80;;;18.80;80.80;;;;;;5002833;28;20451;-69
2023/09/19 10:20:54;;;;;;;5.53;2.57;;;18.80;80.20;;;;;;4996919;28;20816;-69
2023/09/19 10:23:44;;;;;;;7.13;3.23;;;18.90;83.50;;;;;;5006666;28;20497;-69
2023/09/19 10:26:32;;;;;;;5.03;2.10;;;19.00;79.50;;;;;;5006441;28;20493;-70
2023/09/19 10:29:19;;;;;;;4.37;2.37;;;19.10;78.60;;;;;;5006465;28;20448;-69
2023/09/19 10:32:08;;;;;;;8.70;2.40;;;19.40;78.10;;;;;;5006599;28;20542;-70
2023/09/19 10:34:56;;;;;;;5.77;2.43;;;19.60;77.60;;;;;;5008964;28;20485;-70
2023/09/19 10:37:45;;;;;;;10.80;3.07;;;19.70;75.10;;;;;;5004269;28;20492;-70
2023/09/19 10:40:31;;;;;;;6.50;2.10;;;19.80;75.10;;;;;;5002293;28;20535;-70
2023/09/19 10:43:19;;;;;;;8.27;2.50;;;19.90;73.70;;;;;;5006235;28;20432;-70
2023/09/19 10:46:10;;;;;;;20.30;3.50;;;20.00;74.60;;;;;;5012364;28;20727;-69
2023/09/19 10:49:00;;;;;;;5.37;2.63;;;20.10;69.50;;;;;;5006057;28;20475;-70
2023/09/19 10:51:49;;;;;;;4.70;2.20;;;20.30;63.60;;;;;;5011397;28;20490;-69
2023/09/19 10:54:39;;;;;;;10.30;2.30;;;20.40;65.30;;;;;;5009770;28;20463;-70
2023/09/19 10:57:27;;;;;;;6.10;2.50;;;20.70;59.60;;;;;;5008764;28;20452;-70
2023/09/19 11:00:26;;;;;;;5.33;2.10;;;20.90;57.50;;;;;;5014687;28;20558;-69
2023/09/19 11:03:30;;;;;;;3.00;1.70;;;20.90;53.60;;;;;;5012967;28;20564;-70
2023/09/19 11:06:18;;;;;;;7.70;2.10;;;21.00;54.40;;;;;;5004895;28;20485;-69
2023/09/19 11:09:16;;;;;;;6.87;1.80;;;20.80;47.00;;;;;;5015554;28;20627;-69
2023/09/19 11:12:02;;;;;;;3.87;2.03;;;20.80;51.10;;;;;;5012151;28;20565;-70
2023/09/19 11:14:47;;;;;;;9.17;1.97;;;20.60;48.60;;;;;;5008059;28;20440;-69
2023/09/19 11:17:33;;;;;;;3.77;2.30;;;20.70;56.30;;;;;;5010435;28;20453;-70
2023/09/19 11:20:25;;;;;;;5.03;2.17;;;20.70;55.40;;;;;;5010605;28;20484;-70
2023/09/19 11:23:26;;;;;;;4.40;1.93;;;20.90;61.50;;;;;;5012479;28;20441;-69
2023/09/19 11:26:43;;;;;;;5.70;1.93;;;21.00;48.50;;;;;;5009163;28;20582;-70
2023/09/19 11:29:31;;;;;;;4.87;2.13;;;20.90;46.50;;;;;;5010051;28;20468;-70
2023/09/19 11:32:17;;;;;;;3.93;1.50;;;21.00;47.60;;;;;;5009330;28;20473;-70
2023/09/19 11:35:09;;;;;;;7.17;1.70;;;21.20;44.40;;;;;;5005294;28;20435;-70
2023/09/19 11:38:16;;;;;;;8.97;2.10;;;21.20;38.70;;;;;;5009408;28;20496;-71
2023/09/19 11:41:36;;;;;;;6.17;1.87;;;21.10;39.80;;;;;;5008047;28;20532;-71
2023/09/19 11:44:38;;;;;;;3.93;1.60;;;21.10;39.80;;;;;;5008463;28;20441;-71
2023/09/19 11:47:24;;;;;;;8.40;3.03;;;20.90;41.00;;;;;;5008802;28;20511;-70
2023/09/19 11:50:11;;;;;;;4.70;1.90;;;21.00;39.60;;;;;;5012984;28;20778;-71
2023/09/19 11:52:57;;;;;;;7.03;1.50;;;21.10;40.80;;;;;;5011876;28;20504;-70
2023/09/19 11:55:45;;;;;;;8.90;2.03;;;21.20;42.70;;;;;;5003791;28;22182;-71
2023/09/19 11:58:33;;;;;;;6.20;1.77;;;21.40;42.20;;;;;;5003897;28;20532;-71
2023/09/19 12:01:25;;;;;;;3.50;1.40;;;21.50;38.90;;;;;;4999359;28;20438;-71
2023/09/19 12:04:14;;;;;;;4.53;1.60;;;21.70;42.00;;;;;;4996313;28;20701;-71
2023/09/19 12:07:00;;;;;;;5.67;1.40;;;21.80;37.90;;;;;;5009358;28;20408;-71
2023/09/19 12:09:48;;;;;;;5.00;1.50;;;21.80;35.30;;;;;;5007280;28;20456;-71
2023/09/19 12:12:35;;;;;;;4.47;1.60;;;21.80;37.90;;;;;;5006357;28;20465;-71
2023/09/19 12:15:28;;;;;;;2.70;1.23;;;21.90;32.90;;;;;;5007964;28;20444;-71
2023/09/19 12:18:27;;;;;;;7.30;1.80;;;21.90;30.60;;;;;;5001963;28;20922;-70
2023/09/19 12:21:31;;;;;;;8.77;2.13;;;21.80;29.20;;;;;;4998426;28;20928;-70
2023/09/19 12:24:19;;;;;;;8.03;1.40;;;22.00;31.60;;;;;;5000539;28;20421;-71
2023/09/19 12:27:06;;;;;;;4.00;1.50;;;22.10;32.80;;;;;;5004394;28;20485;-71
2023/09/19 12:29:55;;;;;;;3.50;1.93;;;22.30;29.60;;;;;;5003893;28;20593;-71
2023/09/19 12:32:41;;;;;;;13.77;1.47;;;22.60;31.10;;;;;;5001707;28;20887;-71
2023/09/19 12:35:34;;;;;;;4.20;2.00;;;22.70;28.60;;;;;;5002233;28;20480;-71
2023/09/19 12:38:28;;;;;;;4.47;1.50;;;22.60;27.10;;;;;;4993748;28;20464;-71
2023/09/19 12:41:13;;;;;;;4.80;1.80;;;22.70;26.20;;;;;;4980429;28;20518;-71
2023/09/19 12:44:00;;;;;;;7.53;1.33;;;22.70;24.80;;;;;;4992943;28;20925;-71
2023/09/19 12:51:58;;;;;;;3.93;1.73;;;22.50;23.50;;;;;;4985344;28;20479;-70
2023/09/19 12:54:45;;;;;;;6.50;2.03;;;22.50;24.70;;;;;;4970656;28;23125;-70
2023/09/19 12:57:34;;;;;;;3.37;1.37;;;22.60;24.30;;;;;;4983574;28;20436;-70
2023/09/19 13:00:23;;;;;;;5.70;1.43;;;22.70;24.80;;;;;;4965135;28;20455;-68
2023/09/19 13:03:15;;;;;;;4.40;1.90;;;22.90;25.20;;;;;;4965568;28;20807;-70
2023/09/19 13:06:03;;;;;;;3.70;1.20;;;23.00;24.60;;;;;;4992837;22;20498;-76
2023/09/19 13:09:09;;;;;;;2.90;1.37;;;23.00;21.40;;;;;;4983620;28;20514;-76
2023/09/19 13:11:55;;;;;;;3.30;1.40;;;22.90;20.40;;;;;;4984929;28;20529;-78
2023/09/19 13:14:44;;;;;;;10.83;2.10;;;22.50;21.90;;;;;;4987238;28;20617;-75
2023/09/19 13:17:44;;;;;;;3.47;1.30;;;22.60;23.80;;;;;;4986588;28;20848;-76
2023/09/19 13:20:32;;;;;;;5.00;2.00;;;22.70;23.10;;;;;;4985129;28;21090;-76
2023/09/19 13:23:27;;;;;;;4.87;1.70;;;22.80;23.10;;;;;;4987020;28;20445;-77
2023/09/19 13:26:15;;;;;;;3.07;1.47;;;23.20;24.90;;;;;;4984381;28;20479;-76
2023/09/19 13:29:00;;;;;;;3.73;1.80;;;23.50;21.90;;;;;;4983953;28;21096;-77
2023/09/19 13:31:50;;;;;;;4.67;1.80;;;23.40;21.60;;;;;;4989399;28;20450;-77
2023/09/19 13:34:35;;;;;;;4.90;1.53;;;23.40;22.30;;;;;;4989622;28;20485;-76
2023/09/19 13:37:22;;;;;;;5.97;1.80;;;22.80;21.30;;;;;;4982590;28;20589;-77
2023/09/19 13:40:08;;;;;;;3.90;1.40;;;22.50;22.90;;;;;;4985160;28;20429;-77
2023/09/19 13:42:56;;;;;;;3.40;1.50;;;22.30;23.50;;;;;;4986799;28;20460;-77
2023/09/19 13:45:42;;;;;;;4.47;1.60;;;22.00;23.90;;;;;;4981592;28;20465;-76
2023/09/19 13:48:29;;;;;;;3.23;1.57;;;22.00;24.50;;;;;;4988080;28;20453;-76
2023/09/19 13:51:15;;;;;;;4.60;1.53;;;22.10;24.70;;;;;;4987549;28;20446;-76
2023/09/19 13:54:01;;;;;;;4.27;1.30;;;22.00;25.40;;;;;;4978327;28;20614;-76
2023/09/19 13:56:47;;;;;;;5.33;1.80;;;22.20;25.00;;;;;;4988751;28;20449;-76
2023/09/19 13:59:34;;;;;;;3.70;1.60;;;22.50;25.00;;;;;;4983758;28;20852;-76
2023/09/19 14:02:22;;;;;;;4.63;1.70;;;22.80;24.80;;;;;;4980932;28;20890;-76
2023/09/19 14:05:08;;;;;;;4.37;1.50;;;23.00;23.70;;;;;;4980381;28;20474;-76
2023/09/19 14:07:55;;;;;;;6.23;1.90;;;22.90;24.30;;;;;;4981191;28;20839;-76
2023/09/19 14:10:41;;;;;;;4.70;1.33;;;23.00;24.00;;;;;;4982319;28;20451;-76
2023/09/19 14:13:27;;;;;;;2.93;1.53;;;23.00;24.70;;;;;;4981974;28;20841;-76
2023/09/19 14:16:14;;;;;;;4.80;1.80;;;22.50;24.10;;;;;;4976805;28;20462;-75
2023/09/19 14:19:00;;;;;;;3.47;1.60;;;22.10;26.30;;;;;;4984481;28;20469;-75
2023/09/19 14:21:46;;;;;;;4.60;2.00;;;22.00;28.10;;;;;;4988562;28;20448;-75
2023/09/19 14:24:31;;;;;;;3.33;1.20;;;22.00;28.80;;;;;;4987091;28;20453;-76
2023/09/19 14:27:17;;;;;;;8.03;1.70;;;21.90;29.10;;;;;;4988124;28;21007;-76
2023/09/19 14:30:04;;;;;;;3.27;1.50;;;21.70;27.80;;;;;;4986712;28;20537;-76
2023/09/19 14:32:51;;;;;;;9.77;1.60;;;21.70;28.30;;;;;;4980264;28;20444;-76
2023/09/19 14:35:38;;;;;;;5.63;1.57;;;21.90;29.40;;;;;;4990238;28;20480;-76
2023/09/19 14:38:24;;;;;;;3.60;1.87;;;22.00;28.40;;;;;;4989853;28;20458;-76
2023/09/19 14:41:10;;;;;;;2.90;1.43;;;21.80;27.50;;;;;;4990650;28;20438;-76
2023/09/19 14:43:56;;;;;;;2.77;1.20;;;21.80;28.60;;;;;;4990014;28;20536;-76